Time,TemperatureF,DewpointF,PressureIn,WindDirection,WindDirectionDegrees,WindSpeedMPH,WindSpeedGustMPH,Humidity,HourlyPrecipIn,Conditions,Clouds,dailyrainin,SoftwareType,DateUTC
2013-03-07 00:00:00,29.7,24.2,30.27,NNW,335,7.4,7.4,80,0.00,OVC,,0.00,WeatherDisplay:10.37,2013-03-07 05:00:00,
2013-03-07 00:01:00,29.7,24.2,30.27,NNW,335,7.4,7.4,80,0.00,OVC,,0.00,WeatherDisplay:10.37,2013-03-07 05:01:00,
2013-03-07 00:06:00,29.5,24.1,30.27,NNW,335,4.7,4.7,80,0.00,OVC,,0.00,WeatherDisplay:10.37,2013-03-07 05:06:00,
2013-03-07 00:11:00,29.7,24.2,30.27,NNW,335,1.8,4.6,80,0.00,OVC,,0.00,WeatherDisplay:10.37,2013-03-07 05:11:00,
2013-03-07 00:16:00,29.7,24.2,30.27,NW,312,4.6,4.7,80,0.00,OVC,,0.00,WeatherDisplay:10.37,2013-03-07 05:16:00,
2013-03-07 00:21:00,29.7,24.2,30.27,NW,312,3.2,3.8,80,0.00,OVC,,0.00,WeatherDisplay:10.37,2013-03-07 05:21:00,
2013-03-07 00:26:00,29.7,24.2,30.27,NNW,335,1.1,1.1,80,0.00,OVC,,0.00,WeatherDisplay:10.37,2013-03-07 05:26:00,
2013-03-07 00:31:00,29.7,24.2,30.27,NW,313,1.0,0.0,80,0.00,OVC,,0.00,WeatherDisplay:10.37,2013-03-07 05:31:00,
2013-03-07 00:36:00,29.7,24.2,30.27,NW,312,1.8,3.5,80,0.00,OVC,,0.00,WeatherDisplay:10.37,2013-03-07 05:36:00,
2013-03-07 00:41:00,29.7,24.2,30.27,NNW,342,2.0,0.0,80,0.00,OVC,,0.00,WeatherDisplay:10.37,2013-03-07 05:41:00,
2013-03-07 00:46:00,29.8,24.4,30.27,NNW,335,3.5,4.7,80,0.00,OVC,,0.00,WeatherDisplay:10.37,2013-03-07 05:46:00,
2013-03-07 00:51:00,29.8,24.4,30.27,NNW,335,1.1,3.5,80,0.00,OVC,,0.00,WeatherDisplay:10.37,2013-03-07 05:51:00,
2013-03-07 00:56:00,29.8,24.4,30.27,NNW,335,5.6,5.8,80,0.00,OVC,,0.00,WeatherDisplay:10.37,2013-03-07 05:56:00,
2013-03-07 01:01:00,29.8,24.4,30.27,WNW,289,2.7,3.5,80,0.00,OVC,,0.00,WeatherDisplay:10.37,2013-03-07 06:01:00,
2013-03-07 01:06:00,29.8,24.4,30.27,NNW,335,0.1,3.5,80,0.00,OVC,,0.00,WeatherDisplay:10.37,2013-03-07 06:06:00,
2013-03-07 01:11:00,29.8,24.4,30.27,North,349,3.0,0.0,80,0.00,OVC,,0.00,WeatherDisplay:10.37,2013-03-07 06:11:00,
2013-03-07 01:16:00,29.8,24.4,30.27,NNW,335,5.8,5.8,80,0.00,OVC,,0.00,WeatherDisplay:10.37,2013-03-07 06:16:00,
2013-03-07 01:21:00,29.8,24.4,30.28,NNW,340,1.0,0.0,80,0.00,OVC,,0.00,WeatherDisplay:10.37,2013-03-07 06:21:00,
2013-03-07 01:26:00,29.8,24.4,30.28,NNW,335,5.1,5.1,80,0.00,OVC,,0.00,WeatherDisplay:10.37,2013-03-07 06:26:00,
2013-03-07 01:31:00,29.8,24.4,30.27,NNW,327,1.0,0.0,80,0.00,OVC,,0.00,WeatherDisplay:10.37,2013-03-07 06:31:00,
2013-03-07 01:36:00,29.8,24.4,30.28,NNW,335,4.7,4.7,80,0.00,OVC,,0.00,WeatherDisplay:10.37,2013-03-07 06:36:00,
2013-03-07 01:41:00,29.8,24.4,30.28,NNW,330,5.0,0.0,80,0.00,OVC,,0.00,WeatherDisplay:10.37,2013-03-07 06:41:00,
2013-03-07 01:46:00,29.8,24.4,30.28,NNW,335,2.9,3.5,80,0.00,OVC,,0.00,WeatherDisplay:10.37,2013-03-07 06:46:00,
2013-03-07 01:51:00,29.8,24.4,30.28,NW,312,1.6,2.3,80,0.00,OVC,,0.00,WeatherDisplay:10.37,2013-03-07 06:51:00,
2013-03-07 01:56:00,29.8,24.4,30.28,NNW,335,0.0,0.0,80,0.00,OVC,,0.00,WeatherDisplay:10.37,2013-03-07 06:56:00,
2013-03-07 02:01:00,29.8,24.4,30.28,NW,312,3.5,4.7,80,0.00,OVC,,0.00,WeatherDisplay:10.37,2013-03-07 07:01:00,
2013-03-07 02:06:00,29.8,24.4,30.28,North,357,0.0,0.0,80,0.00,OVC,,0.00,WeatherDisplay:10.37,2013-03-07 07:06:00,
2013-03-07 02:11:00,29.8,24.4,30.28,NNW,335,2.0,2.3,80,0.00,OVC,,0.00,WeatherDisplay:10.37,2013-03-07 07:11:00,
2013-03-07 02:16:00,29.8,24.4,30.28,NNW,335,4.8,4.9,80,0.00,OVC,,0.00,WeatherDisplay:10.37,2013-03-07 07:16:00,
2013-03-07 02:21:00,29.8,24.4,30.29,NNW,338,5.0,0.0,80,0.00,OVC,,0.00,WeatherDisplay:10.37,2013-03-07 07:21:00,
2013-03-07 02:26:00,29.8,24.4,30.28,North,357,0.0,0.0,80,0.00,OVC,,0.00,WeatherDisplay:10.37,2013-03-07 07:26:00,
2013-03-07 02:31:00,29.8,24.4,30.29,NNW,333,2.0,0.0,80,0.00,OVC,,0.00,WeatherDisplay:10.37,2013-03-07 07:31:00,
2013-03-07 02:36:00,29.8,24.4,30.28,NW,312,1.1,1.1,80,0.00,OVC,,0.00,WeatherDisplay:10.37,2013-03-07 07:36:00,
2013-03-07 02:41:00,29.8,24.4,30.28,North,357,5.8,5.8,80,0.00,OVC,,0.00,WeatherDisplay:10.37,2013-03-07 07:41:00,
2013-03-07 02:46:00,29.8,24.4,30.28,North,357,3.0,3.5,80,0.00,OVC,,0.00,WeatherDisplay:10.37,2013-03-07 07:46:00,
2013-03-07 02:51:00,29.8,24.4,30.28,NNW,346,3.0,0.0,80,0.00,OVC,,0.00,WeatherDisplay:10.37,2013-03-07 07:51:00,
2013-03-07 02:56:00,29.8,24.4,30.29,NNW,335,2.0,2.3,80,0.00,OVC,,0.00,WeatherDisplay:10.37,2013-03-07 07:56:00,
2013-03-07 03:01:00,29.8,24.4,30.28,WNW,289,0.0,0.0,80,0.00,OVC,,0.00,WeatherDisplay:10.37,2013-03-07 08:01:00,
2013-03-07 03:07:00,29.8,24.4,30.29,West,267,0.3,1.1,80,0.00,OVC,,0.00,WeatherDisplay:10.37,2013-03-07 08:07:00,
2013-03-07 03:12:00,29.8,24.4,30.29,West,267,0.0,0.0,80,0.00,OVC,,0.00,WeatherDisplay:10.37,2013-03-07 08:12:00,
2013-03-07 03:17:00,29.8,24.4,30.28,North,357,0.2,1.6,80,0.00,OVC,,0.00,WeatherDisplay:10.37,2013-03-07 08:17:00,
2013-03-07 03:22:00,29.8,24.4,30.29,NNW,335,2.9,3.5,80,0.00,OVC,,0.00,WeatherDisplay:10.37,2013-03-07 08:22:00,
2013-03-07 03:27:00,29.8,24.4,30.29,NNW,335,3.7,5.8,80,0.00,OVC,,0.00,WeatherDisplay:10.37,2013-03-07 08:27:00,
2013-03-07 03:32:00,29.8,24.4,30.29,NW,312,4.6,4.6,80,0.00,OVC,,0.00,WeatherDisplay:10.37,2013-03-07 08:32:00,
2013-03-07 03:37:00,29.8,24.4,30.29,NW,312,4.6,5.8,80,0.00,OVC,,0.00,WeatherDisplay:10.37,2013-03-07 08:37:00,
2013-03-07 03:42:00,29.8,24.4,30.29,WNW,289,2.5,5.8,80,0.00,OVC,,0.00,WeatherDisplay:10.37,2013-03-07 08:42:00,
2013-03-07 03:47:00,29.8,24.4,30.29,North,357,9.0,10.4,80,0.00,OVC,,0.00,WeatherDisplay:10.37,2013-03-07 08:47:00,
2013-03-07 03:52:00,29.8,24.4,30.29,NNW,335,1.8,3.5,80,0.00,OVC,,0.00,WeatherDisplay:10.37,2013-03-07 08:52:00,
2013-03-07 03:57:00,29.8,24.4,30.29,NNW,335,4.5,4.6,80,0.00,OVC,,0.00,WeatherDisplay:10.37,2013-03-07 08:57:00,
2013-03-07 04:03:00,29.8,24.4,30.29,NNW,335,0.6,4.6,80,0.00,OVC,,0.00,WeatherDisplay:10.37,2013-03-07 09:03:00,
2013-03-07 04:08:00,29.8,24.4,30.30,West,267,0.0,0.0,80,0.00,OVC,,0.00,WeatherDisplay:10.37,2013-03-07 09:08:00,
2013-03-07 04:13:00,29.8,24.4,30.29,NW,312,0.0,0.0,80,0.00,OVC,,0.00,WeatherDisplay:10.37,2013-03-07 09:13:00,
2013-03-07 04:18:00,29.8,24.4,30.29,WNW,289,0.0,0.0,80,0.00,OVC,,0.00,WeatherDisplay:10.37,2013-03-07 09:18:00,
2013-03-07 04:23:00,29.8,24.4,30.29,WNW,289,2.3,2.3,80,0.00,OVC,,0.00,WeatherDisplay:10.37,2013-03-07 09:23:00,
2013-03-07 04:29:00,29.8,24.4,30.29,West,267,1.8,2.3,80,0.00,OVC,,0.00,WeatherDisplay:10.37,2013-03-07 09:29:00,
2013-03-07 04:34:00,29.8,24.4,30.29,West,267,0.0,0.0,80,0.00,OVC,,0.00,WeatherDisplay:10.37,2013-03-07 09:34:00,
2013-03-07 04:39:00,29.8,24.4,30.29,West,267,0.0,0.0,80,0.00,OVC,,0.00,WeatherDisplay:10.37,2013-03-07 09:39:00,
2013-03-07 04:44:00,29.8,24.4,30.29,West,267,0.0,0.0,80,0.00,OVC,,0.00,WeatherDisplay:10.37,2013-03-07 09:44:00,
2013-03-07 04:49:00,29.8,24.4,30.29,WNW,289,0.0,0.0,80,0.00,OVC,,0.00,WeatherDisplay:10.37,2013-03-07 09:49:00,
2013-03-07 04:55:00,29.8,24.4,30.29,SW,222,0.0,0.0,80,0.00,OVC,,0.00,WeatherDisplay:10.37,2013-03-07 09:55:00,
2013-03-07 05:00:00,29.8,24.4,30.29,West,267,0.0,0.0,80,0.00,OVC,,0.00,WeatherDisplay:10.37,2013-03-07 10:00:00,
2013-03-07 05:05:00,29.8,24.4,30.30,West,267,0.0,0.0,80,0.00,OVC,,0.00,WeatherDisplay:10.37,2013-03-07 10:05:00,
2013-03-07 05:10:00,29.8,24.7,30.30,West,267,0.0,0.0,81,0.00,OVC,,0.00,WeatherDisplay:10.37,2013-03-07 10:10:00,
2013-03-07 05:15:00,29.8,24.7,30.30,WNW,289,0.0,0.0,81,0.00,OVC,,0.00,WeatherDisplay:10.37,2013-03-07 10:15:00,
2013-03-07 05:20:00,29.8,24.7,30.30,West,267,0.0,0.0,81,0.00,OVC,,0.00,WeatherDisplay:10.37,2013-03-07 10:20:00,
2013-03-07 05:25:00,29.8,24.7,30.30,WNW,289,0.0,0.0,81,0.00,OVC,,0.00,WeatherDisplay:10.37,2013-03-07 10:25:00,
2013-03-07 05:30:00,29.8,24.7,30.30,WNW,289,0.0,0.0,81,0.00,OVC,,0.00,WeatherDisplay:10.37,2013-03-07 10:30:00,
2013-03-07 05:35:00,29.8,24.7,30.30,NW,312,2.4,3.5,81,0.00,OVC,,0.00,WeatherDisplay:10.37,2013-03-07 10:35:00,
2013-03-07 05:40:00,29.8,24.7,30.30,West,267,1.3,1.3,81,0.00,OVC,,0.00,WeatherDisplay:10.37,2013-03-07 10:40:00,
2013-03-07 05:45:00,29.8,24.7,30.30,WNW,289,0.9,1.1,81,0.00,OVC,,0.00,WeatherDisplay:10.37,2013-03-07 10:45:00,
2013-03-07 05:50:00,29.7,24.5,30.30,WNW,289,0.0,0.0,81,0.00,OVC,,0.00,WeatherDisplay:10.37,2013-03-07 10:50:00,
2013-03-07 05:55:00,29.8,24.7,30.30,WNW,301,3.0,0.0,81,0.00,OVC,,0.00,WeatherDisplay:10.37,2013-03-07 10:55:00,
2013-03-07 06:00:00,29.7,24.5,30.30,WNW,289,2.3,3.5,81,0.00,OVC,,0.00,WeatherDisplay:10.37,2013-03-07 11:00:00,
2013-03-07 06:05:00,29.7,24.5,30.30,WNW,289,0.0,0.0,81,0.00,OVC,,0.00,WeatherDisplay:10.37,2013-03-07 11:05:00,
2013-03-07 06:10:00,29.8,24.7,30.31,WNW,289,0.0,0.0,81,0.00,OVC,,0.00,WeatherDisplay:10.37,2013-03-07 11:10:00,
2013-03-07 06:15:00,29.8,24.7,30.31,NW,312,0.0,0.0,81,0.00,OVC,,0.00,WeatherDisplay:10.37,2013-03-07 11:15:00,
2013-03-07 06:20:00,29.8,25.0,30.31,WNW,289,2.6,3.5,82,0.00,OVC,,0.00,WeatherDisplay:10.37,2013-03-07 11:20:00,
2013-03-07 06:25:00,29.8,25.0,30.31,West,267,1.3,1.3,82,0.00,OVC,,0.00,WeatherDisplay:10.37,2013-03-07 11:25:00,
2013-03-07 06:31:00,29.7,24.8,30.31,WNW,289,0.0,0.0,82,0.00,OVC,,0.00,WeatherDisplay:10.37,2013-03-07 11:31:00,
2013-03-07 06:36:00,29.7,24.8,30.31,NNW,335,3.1,3.5,82,0.00,OVC,,0.00,WeatherDisplay:10.37,2013-03-07 11:36:00,
2013-03-07 06:41:00,29.7,24.8,30.31,NNW,335,2.7,2.7,82,0.00,OVC,,0.00,WeatherDisplay:10.37,2013-03-07 11:41:00,
2013-03-07 06:46:00,29.7,24.8,30.32,NW,312,1.2,2.3,82,0.00,OVC,,0.00,WeatherDisplay:10.37,2013-03-07 11:46:00,
2013-03-07 06:51:00,29.7,24.8,30.32,WNW,289,0.9,2.3,82,0.00,OVC,,0.00,WeatherDisplay:10.37,2013-03-07 11:51:00,
2013-03-07 06:56:00,29.7,24.8,30.33,WNW,289,1.6,1.6,82,0.00,OVC,,0.00,WeatherDisplay:10.37,2013-03-07 11:56:00,
2013-03-07 07:01:00,29.7,24.8,30.32,NW,312,0.0,0.0,82,0.00,OVC,,0.00,WeatherDisplay:10.37,2013-03-07 12:01:00,
2013-03-07 07:06:00,29.7,24.8,30.33,NW,312,2.0,2.3,82,0.00,OVC,,0.00,WeatherDisplay:10.37,2013-03-07 12:06:00,
2013-03-07 07:11:00,29.7,24.8,30.32,WSW,245,2.0,2.3,82,0.00,OVC,,0.00,WeatherDisplay:10.37,2013-03-07 12:11:00,
2013-03-07 07:16:00,29.7,24.8,30.33,NNW,335,0.7,1.1,82,0.00,OVC,,0.00,WeatherDisplay:10.37,2013-03-07 12:16:00,
2013-03-07 07:21:00,29.7,25.1,30.33,NNE,19,0.0,0.0,83,0.00,OVC,,0.00,WeatherDisplay:10.37,2013-03-07 12:21:00,
2013-03-07 07:26:00,29.8,25.3,30.33,NNW,335,0.7,2.2,83,0.00,OVC,,0.00,WeatherDisplay:10.37,2013-03-07 12:26:00,
2013-03-07 07:31:00,29.8,25.3,30.33,WNW,289,1.6,1.6,83,0.00,OVC,,0.00,WeatherDisplay:10.37,2013-03-07 12:31:00,
2013-03-07 07:36:00,29.8,25.3,30.33,West,267,0.0,0.0,83,0.00,OVC,,0.00,WeatherDisplay:10.37,2013-03-07 12:36:00,
2013-03-07 07:41:00,29.8,25.3,30.33,NW,312,1.2,1.2,83,0.00,OVC,,0.00,WeatherDisplay:10.37,2013-03-07 12:41:00,
2013-03-07 07:46:00,29.8,25.3,30.33,NW,312,0.0,0.0,83,0.00,OVC,,0.00,WeatherDisplay:10.37,2013-03-07 12:46:00,
2013-03-07 07:51:00,29.8,25.3,30.33,NW,312,1.1,1.1,83,0.00,OVC,,0.00,WeatherDisplay:10.37,2013-03-07 12:51:00,
2013-03-07 07:56:00,30.0,25.5,30.34,NNW,335,2.8,3.6,83,0.00,OVC,,0.00,WeatherDisplay:10.37,2013-03-07 12:56:00,
2013-03-07 08:01:00,30.0,25.5,30.34,WNW,289,2.6,2.6,83,0.00,OVC,,0.00,WeatherDisplay:10.37,2013-03-07 13:01:00,
2013-03-07 08:06:00,30.0,25.5,30.34,NW,312,0.0,2.3,83,0.00,OVC,,0.00,WeatherDisplay:10.37,2013-03-07 13:06:00,
2013-03-07 08:11:00,30.0,25.5,30.34,NW,312,1.5,2.3,83,0.00,OVC,,0.00,WeatherDisplay:10.37,2013-03-07 13:11:00,
2013-03-07 08:16:00,30.0,25.5,30.34,NW,312,0.0,1.1,83,0.00,OVC,,0.00,WeatherDisplay:10.37,2013-03-07 13:16:00,
2013-03-07 08:21:00,30.0,25.5,30.35,NNW,335,3.6,3.6,83,0.00,OVC,,0.00,WeatherDisplay:10.37,2013-03-07 13:21:00,
2013-03-07 08:26:00,30.2,25.7,30.35,NNW,335,2.5,2.5,83,0.00,OVC,,0.00,WeatherDisplay:10.37,2013-03-07 13:26:00,
2013-03-07 08:31:00,30.4,25.8,30.35,NW,312,2.3,2.7,83,0.00,OVC,,0.00,WeatherDisplay:10.37,2013-03-07 13:31:00,
2013-03-07 08:36:00,30.4,25.8,30.34,NW,312,2.7,2.7,83,0.00,OVC,,0.00,WeatherDisplay:10.37,2013-03-07 13:36:00,
2013-03-07 08:41:00,30.6,26.0,30.35,NNW,335,0.0,0.0,83,0.00,OVC,,0.00,WeatherDisplay:10.37,2013-03-07 13:41:00,
2013-03-07 08:46:00,30.6,26.0,30.35,WNW,289,3.8,3.8,83,0.00,OVC,,0.00,WeatherDisplay:10.37,2013-03-07 13:46:00,
2013-03-07 08:51:00,30.6,26.0,30.35,WNW,289,3.8,3.8,83,0.00,OVC,,0.00,WeatherDisplay:10.37,2013-03-07 13:51:00,
2013-03-07 08:56:00,30.6,26.0,30.35,NW,312,2.3,2.3,83,0.00,OVC,,0.00,WeatherDisplay:10.37,2013-03-07 13:56:00,
2013-03-07 09:01:00,30.6,26.0,30.35,NW,312,2.3,2.3,83,0.00,OVC,,0.00,WeatherDisplay:10.37,2013-03-07 14:01:00,
2013-03-07 09:06:00,30.6,26.0,30.35,NW,312,2.3,2.3,83,0.00,OVC,,0.00,WeatherDisplay:10.37,2013-03-07 14:06:00,
2013-03-07 09:11:00,31.3,26.7,30.36,NW,312,1.9,2.3,83,0.00,OVC,,0.00,WeatherDisplay:10.37,2013-03-07 14:11:00,
2013-03-07 09:16:00,31.6,27.1,30.36,NW,312,1.9,0.0,83,0.00,OVC,,0.00,WeatherDisplay:10.37,2013-03-07 14:16:00,
2013-03-07 09:21:00,31.6,27.1,30.36,NW,312,1.9,0.0,83,0.00,OVC,,0.00,WeatherDisplay:10.37,2013-03-07 14:21:00,
2013-03-07 09:26:00,31.6,27.1,30.36,NW,312,1.9,0.0,83,0.00,OVC,,0.00,WeatherDisplay:10.37,2013-03-07 14:26:00,
2013-03-07 09:31:00,31.8,27.0,30.36,NNW,335,0.0,3.5,82,0.00,OVC,,0.00,WeatherDisplay:10.37,2013-03-07 14:31:00,
2013-03-07 09:36:00,31.8,27.0,30.36,SW,222,3.1,3.1,82,0.00,OVC,,0.00,WeatherDisplay:10.37,2013-03-07 14:36:00,
2013-03-07 09:41:00,31.8,27.0,30.36,SW,222,3.1,3.1,82,0.00,OVC,,0.00,WeatherDisplay:10.37,2013-03-07 14:41:00,
2013-03-07 09:46:00,32.7,27.8,30.36,WNW,289,3.5,3.5,82,0.00,OVC,,0.00,WeatherDisplay:10.37,2013-03-07 14:46:00,
2013-03-07 09:51:00,32.7,27.8,30.36,WNW,289,3.5,0.0,82,0.00,OVC,,0.00,WeatherDisplay:10.37,2013-03-07 14:51:00,
2013-03-07 09:56:00,32.7,27.8,30.36,West,267,0.0,0.0,82,0.00,OVC,,0.00,WeatherDisplay:10.37,2013-03-07 14:56:00,
2013-03-07 10:01:00,32.7,27.8,30.36,NNW,335,0.0,2.3,82,0.00,OVC,,0.00,WeatherDisplay:10.37,2013-03-07 15:01:00,
2013-03-07 10:06:00,33.6,28.7,30.35,NW,312,2.0,0.0,82,0.00,OVC,,0.00,WeatherDisplay:10.37,2013-03-07 15:06:00,
2013-03-07 10:11:00,34.3,29.4,30.35,West,267,0.0,0.0,82,0.00,OVC,,0.00,WeatherDisplay:10.37,2013-03-07 15:11:00,
2013-03-07 10:16:00,34.3,29.4,30.35,NNW,335,0.0,0.0,82,0.00,OVC,,0.00,WeatherDisplay:10.37,2013-03-07 15:16:00,
2013-03-07 10:21:00,34.3,28.8,30.35,NNW,335,0.0,0.0,80,0.00,OVC,,0.00,WeatherDisplay:10.37,2013-03-07 15:21:00,
2013-03-07 10:26:00,34.3,28.8,30.35,NNW,335,0.0,2.3,80,0.00,OVC,,0.00,WeatherDisplay:10.37,2013-03-07 15:26:00,
2013-03-07 10:31:00,34.9,28.7,30.35,NW,312,2.2,4.6,78,0.00,OVC,,0.00,WeatherDisplay:10.37,2013-03-07 15:31:00,
2013-03-07 10:36:00,34.9,28.7,30.35,NW,312,2.2,4.6,78,0.00,OVC,,0.00,WeatherDisplay:10.37,2013-03-07 15:36:00,
2013-03-07 10:41:00,34.9,28.4,30.35,NNW,335,4.7,4.7,77,0.00,OVC,,0.00,WeatherDisplay:10.37,2013-03-07 15:41:00,
2013-03-07 10:47:00,35.4,28.9,30.35,NW,312,2.7,2.7,77,0.00,OVC,,0.00,WeatherDisplay:10.37,2013-03-07 15:47:00,
2013-03-07 10:52:00,35.4,28.9,30.35,NW,312,1.8,2.3,77,0.00,OVC,,0.00,WeatherDisplay:10.37,2013-03-07 15:52:00,
2013-03-07 10:57:00,35.4,28.9,30.35,NW,312,1.8,1.8,77,0.00,OVC,,0.00,WeatherDisplay:10.37,2013-03-07 15:57:00,
2013-03-07 11:02:00,35.4,28.9,30.36,NW,312,1.8,1.8,77,0.00,OVC,,0.00,WeatherDisplay:10.37,2013-03-07 16:02:00,
2013-03-07 11:07:00,35.4,28.9,30.36,NW,312,1.8,1.8,77,0.02,RA,,0.02,WeatherDisplay:10.37,2013-03-07 16:07:00,
2013-03-07 11:12:00,35.4,28.9,30.36,NW,312,1.8,1.8,77,0.02,RA,,0.02,WeatherDisplay:10.37,2013-03-07 16:12:00,
2013-03-07 11:17:00,36.0,29.1,30.37,NW,312,1.6,1.6,76,0.02,OVC,,0.02,WeatherDisplay:10.37,2013-03-07 16:17:00,
2013-03-07 11:22:00,36.1,29.3,30.37,NE,42,1.6,1.6,76,0.02,OVC,,0.02,WeatherDisplay:10.37,2013-03-07 16:22:00,
2013-03-07 11:27:00,36.3,29.2,30.37,NE,42,2.5,2.5,75,0.02,OVC,,0.02,WeatherDisplay:10.37,2013-03-07 16:27:00,
2013-03-07 11:32:00,36.3,29.2,30.37,WNW,289,1.1,1.6,75,0.02,OVC,,0.02,WeatherDisplay:10.37,2013-03-07 16:32:00,
2013-03-07 11:37:00,36.5,29.3,30.37,WSW,245,0.0,0.0,75,0.02,OVC,,0.02,WeatherDisplay:10.37,2013-03-07 16:37:00,
2013-03-07 11:42:00,37.0,29.8,30.37,NW,312,0.0,0.0,75,0.02,OVC,,0.02,WeatherDisplay:10.37,2013-03-07 16:42:00,
2013-03-07 11:47:00,37.4,30.2,30.37,West,267,0.0,0.0,75,0.02,OVC,,0.02,WeatherDisplay:10.37,2013-03-07 16:47:00,
2013-03-07 11:52:00,37.6,30.0,30.37,WSW,245,1.8,2.3,74,0.02,OVC,,0.02,WeatherDisplay:10.37,2013-03-07 16:52:00,
2013-03-07 11:57:00,37.6,29.7,30.37,WNW,289,1.8,3.5,73,0.02,OVC,,0.02,WeatherDisplay:10.37,2013-03-07 16:57:00,
2013-03-07 12:02:00,37.8,29.9,30.37,NNW,335,1.6,1.6,73,0.02,OVC,,0.02,WeatherDisplay:10.37,2013-03-07 17:02:00,
2013-03-07 12:07:00,37.9,29.7,30.37,WNW,289,4.3,4.6,72,0.00,OVC,,0.02,WeatherDisplay:10.37,2013-03-07 17:07:00,
2013-03-07 12:12:00,37.6,29.4,30.37,West,267,0.0,0.0,72,0.00,OVC,,0.02,WeatherDisplay:10.37,2013-03-07 17:12:00,
2013-03-07 12:17:00,37.6,29.4,30.37,WNW,289,3.6,3.6,72,0.00,OVC,,0.02,WeatherDisplay:10.37,2013-03-07 17:17:00,
2013-03-07 12:22:00,37.8,29.5,30.36,West,267,0.0,0.0,72,0.00,OVC,,0.02,WeatherDisplay:10.37,2013-03-07 17:22:00,
2013-03-07 12:27:00,37.9,29.7,30.36,WNW,289,0.6,1.1,72,0.00,OVC,,0.02,WeatherDisplay:10.37,2013-03-07 17:27:00,
2013-03-07 12:32:00,38.3,30.1,30.35,West,267,2.2,2.3,72,0.00,OVC,,0.02,WeatherDisplay:10.37,2013-03-07 17:32:00,
2013-03-07 12:37:00,38.3,29.4,30.36,NW,312,0.5,2.3,70,0.00,OVC,,0.02,WeatherDisplay:10.37,2013-03-07 17:37:00,
2013-03-07 12:42:00,38.3,29.4,30.35,NW,312,0.0,0.0,70,0.00,OVC,,0.02,WeatherDisplay:10.37,2013-03-07 17:42:00,
2013-03-07 12:47:00,38.1,28.8,30.35,North,357,5.4,5.8,69,0.00,OVC,,0.02,WeatherDisplay:10.37,2013-03-07 17:47:00,
2013-03-07 12:52:00,37.6,28.7,30.35,NNW,335,4.6,4.6,70,0.00,OVC,,0.02,WeatherDisplay:10.37,2013-03-07 17:52:00,
2013-03-07 12:57:00,37.2,28.3,30.34,West,267,0.2,3.5,70,0.00,OVC,,0.02,WeatherDisplay:10.37,2013-03-07 17:57:00,
2013-03-07 13:02:00,37.2,28.3,30.35,NNW,335,0.0,0.0,70,0.00,OVC,,0.02,WeatherDisplay:10.37,2013-03-07 18:02:00,
2013-03-07 13:07:00,37.2,28.7,30.34,NW,312,0.0,0.0,71,0.00,OVC,,0.02,WeatherDisplay:10.37,2013-03-07 18:07:00,
2013-03-07 13:13:00,37.6,28.7,30.34,NNW,335,0.0,4.6,70,0.00,OVC,,0.02,WeatherDisplay:10.37,2013-03-07 18:13:00,
2013-03-07 13:18:00,37.6,28.7,30.34,NNW,335,2.2,2.3,70,0.00,OVC,,0.02,WeatherDisplay:10.37,2013-03-07 18:18:00,
2013-03-07 13:23:00,37.4,28.5,30.34,West,267,2.2,2.3,70,0.00,OVC,,0.02,WeatherDisplay:10.37,2013-03-07 18:23:00,
2013-03-07 13:28:00,37.2,28.3,30.34,NNW,335,2.1,4.6,70,0.00,OVC,,0.02,WeatherDisplay:10.37,2013-03-07 18:28:00,
2013-03-07 13:33:00,37.0,28.2,30.34,NE,42,0.0,2.3,70,0.00,OVC,,0.02,WeatherDisplay:10.37,2013-03-07 18:33:00,
2013-03-07 13:38:00,36.9,28.0,30.34,NNW,335,3.8,3.8,70,0.00,OVC,,0.02,WeatherDisplay:10.37,2013-03-07 18:38:00,
2013-03-07 13:43:00,36.7,27.8,30.34,NW,312,1.8,2.3,70,0.00,OVC,,0.02,WeatherDisplay:10.37,2013-03-07 18:43:00,
2013-03-07 13:48:00,36.7,27.8,30.34,NNE,19,2.9,3.5,70,0.00,OVC,,0.02,WeatherDisplay:10.37,2013-03-07 18:48:00,
2013-03-07 13:53:00,36.7,28.2,30.34,NNE,19,0.8,1.1,71,0.00,OVC,,0.02,WeatherDisplay:10.37,2013-03-07 18:53:00,
2013-03-07 13:58:00,36.7,28.2,30.34,NNW,335,5.6,5.6,71,0.00,OVC,,0.02,WeatherDisplay:10.37,2013-03-07 18:58:00,
2013-03-07 14:03:00,36.7,28.2,30.34,ENE,65,5.1,0.0,71,0.00,OVC,,0.02,WeatherDisplay:10.37,2013-03-07 19:03:00,
2013-03-07 14:08:00,36.7,28.2,30.34,NNW,335,3.0,4.6,71,0.00,OVC,,0.02,WeatherDisplay:10.37,2013-03-07 19:08:00,
2013-03-07 14:13:00,36.7,28.2,30.34,WNW,289,3.2,3.2,71,0.00,OVC,,0.02,WeatherDisplay:10.37,2013-03-07 19:13:00,
2013-03-07 14:18:00,36.7,28.2,30.34,North,357,0.0,0.0,71,0.00,OVC,,0.02,WeatherDisplay:10.37,2013-03-07 19:18:00,
2013-03-07 14:23:00,36.7,28.2,30.34,ENE,65,0.9,0.0,71,0.00,OVC,,0.02,WeatherDisplay:10.37,2013-03-07 19:23:00,
2013-03-07 14:28:00,36.7,28.2,30.34,NNW,335,2.5,3.5,71,0.00,OVC,,0.02,WeatherDisplay:10.37,2013-03-07 19:28:00,
2013-03-07 14:34:00,37.0,28.2,30.34,West,267,0.0,1.1,70,0.00,OVC,,0.02,WeatherDisplay:10.37,2013-03-07 19:34:00,
2013-03-07 14:39:00,37.4,28.9,30.34,WNW,289,0.0,0.0,71,0.00,OVC,,0.02,WeatherDisplay:10.37,2013-03-07 19:39:00,
2013-03-07 14:44:00,37.9,29.0,30.34,NW,312,0.0,0.0,70,0.00,OVC,,0.02,WeatherDisplay:10.37,2013-03-07 19:44:00,
2013-03-07 14:49:00,38.1,28.8,30.34,NW,312,2.2,2.3,69,0.00,OVC,,0.02,WeatherDisplay:10.37,2013-03-07 19:49:00,
2013-03-07 14:54:00,37.9,28.3,30.34,NW,312,2.5,2.5,68,0.00,OVC,,0.02,WeatherDisplay:10.37,2013-03-07 19:54:00,
2013-03-07 14:59:00,37.8,28.1,30.34,NNW,335,3.6,3.6,68,0.00,OVC,,0.02,WeatherDisplay:10.37,2013-03-07 19:59:00,
2013-03-07 15:04:00,37.4,27.8,30.33,WNW,289,0.0,0.0,68,0.00,OVC,,0.02,WeatherDisplay:10.37,2013-03-07 20:04:00,
2013-03-07 15:09:00,37.4,27.8,30.33,NW,312,2.7,2.7,68,0.00,OVC,,0.02,WeatherDisplay:10.37,2013-03-07 20:09:00,
2013-03-07 15:14:00,37.2,27.6,30.33,West,267,0.0,0.0,68,0.00,OVC,,0.02,WeatherDisplay:10.37,2013-03-07 20:14:00,
2013-03-07 15:19:00,37.6,28.0,30.33,NNW,335,2.0,2.3,68,0.00,OVC,,0.02,WeatherDisplay:10.37,2013-03-07 20:19:00,
2013-03-07 15:24:00,37.6,28.0,30.33,NNW,335,0.1,2.3,68,0.00,OVC,,0.02,WeatherDisplay:10.37,2013-03-07 20:24:00,
2013-03-07 15:29:00,37.8,28.1,30.33,NW,312,0.0,0.0,68,0.00,OVC,,0.02,WeatherDisplay:10.37,2013-03-07 20:29:00,
2013-03-07 15:34:00,37.8,28.1,30.33,NNW,335,0.0,0.0,68,0.00,OVC,,0.02,WeatherDisplay:10.37,2013-03-07 20:34:00,
2013-03-07 15:39:00,38.1,28.5,30.32,NW,312,0.0,3.5,68,0.00,OVC,,0.02,WeatherDisplay:10.37,2013-03-07 20:39:00,
2013-03-07 15:44:00,38.1,28.5,30.33,NE,42,1.6,2.3,68,0.00,OVC,,0.02,WeatherDisplay:10.37,2013-03-07 20:44:00,
2013-03-07 15:49:00,38.1,28.5,30.33,NNW,335,0.0,0.0,68,0.00,OVC,,0.02,WeatherDisplay:10.37,2013-03-07 20:49:00,
2013-03-07 15:54:00,37.6,28.0,30.33,WNW,289,2.5,2.5,68,0.00,OVC,,0.02,WeatherDisplay:10.37,2013-03-07 20:54:00,
2013-03-07 15:59:00,37.4,27.8,30.33,NW,312,3.0,3.5,68,0.00,OVC,,0.02,WeatherDisplay:10.37,2013-03-07 20:59:00,
2013-03-07 16:04:00,37.2,27.6,30.33,WNW,289,1.8,2.3,68,0.00,OVC,,0.02,WeatherDisplay:10.37,2013-03-07 21:04:00,
2013-03-07 16:09:00,37.2,27.6,30.33,NW,312,1.6,3.5,68,0.00,OVC,,0.02,WeatherDisplay:10.37,2013-03-07 21:09:00,
2013-03-07 16:14:00,37.2,27.6,30.33,NNW,335,0.9,3.5,68,0.00,OVC,,0.02,WeatherDisplay:10.37,2013-03-07 21:14:00,
2013-03-07 16:19:00,37.2,27.6,30.33,North,357,7.8,8.1,68,0.00,OVC,,0.02,WeatherDisplay:10.37,2013-03-07 21:19:00,
2013-03-07 16:24:00,36.9,27.3,30.32,NNW,335,2.1,3.5,68,0.00,OVC,,0.02,WeatherDisplay:10.37,2013-03-07 21:24:00,
2013-03-07 16:29:00,36.9,27.6,30.33,NE,42,3.2,3.5,69,0.00,OVC,,0.02,WeatherDisplay:10.37,2013-03-07 21:29:00,
2013-03-07 16:34:00,37.0,27.5,30.33,NW,312,2.5,2.5,68,0.00,OVC,,0.02,WeatherDisplay:10.37,2013-03-07 21:34:00,
2013-03-07 16:39:00,37.0,27.5,30.33,NNW,335,0.0,0.0,68,0.00,OVC,,0.02,WeatherDisplay:10.37,2013-03-07 21:39:00,
2013-03-07 16:44:00,37.0,27.5,30.32,NW,312,0.0,0.0,68,0.00,OVC,,0.02,WeatherDisplay:10.37,2013-03-07 21:44:00,
2013-03-07 16:49:00,37.0,27.5,30.32,NW,312,2.2,2.3,68,0.00,OVC,,0.02,WeatherDisplay:10.37,2013-03-07 21:49:00,
2013-03-07 16:54:00,37.0,27.5,30.33,NNW,335,3.4,3.5,68,0.00,OVC,,0.02,WeatherDisplay:10.37,2013-03-07 21:54:00,
2013-03-07 16:59:00,37.0,27.5,30.33,NW,312,2.9,3.5,68,0.00,OVC,,0.02,WeatherDisplay:10.37,2013-03-07 21:59:00,
2013-03-07 17:04:00,36.9,27.3,30.34,NW,312,2.2,2.3,68,0.00,OVC,,0.02,WeatherDisplay:10.37,2013-03-07 22:04:00,
2013-03-07 17:09:00,36.7,27.5,30.34,ENE,65,0.9,3.5,69,0.00,OVC,,0.02,WeatherDisplay:10.37,2013-03-07 22:09:00,
2013-03-07 17:14:00,36.5,26.9,30.33,NNW,335,0.0,0.0,68,0.00,OVC,,0.02,WeatherDisplay:10.37,2013-03-07 22:14:00,
2013-03-07 17:19:00,36.3,26.8,30.33,NNW,335,2.0,2.3,68,0.00,OVC,,0.02,WeatherDisplay:10.37,2013-03-07 22:19:00,
2013-03-07 17:24:00,36.3,27.1,30.34,North,357,2.2,2.3,69,0.00,OVC,,0.02,WeatherDisplay:10.37,2013-03-07 22:24:00,
2013-03-07 17:29:00,36.3,27.1,30.34,NNE,19,2.6,2.6,69,0.00,OVC,,0.02,WeatherDisplay:10.37,2013-03-07 22:29:00,
2013-03-07 17:34:00,36.1,26.9,30.34,NNW,335,0.0,0.0,69,0.00,OVC,,0.02,WeatherDisplay:10.37,2013-03-07 22:34:00,
2013-03-07 17:39:00,36.1,26.9,30.34,NNW,335,3.9,3.9,69,0.00,OVC,,0.02,WeatherDisplay:10.37,2013-03-07 22:39:00,
2013-03-07 17:44:00,36.0,26.8,30.34,NNE,19,1.3,1.3,69,0.00,OVC,,0.02,WeatherDisplay:10.37,2013-03-07 22:44:00,
2013-03-07 17:49:00,36.0,26.8,30.34,North,357,0.0,0.0,69,0.00,OVC,,0.02,WeatherDisplay:10.37,2013-03-07 22:49:00,
2013-03-07 17:54:00,36.0,26.8,30.34,ENE,65,0.0,0.0,69,0.00,OVC,,0.02,WeatherDisplay:10.37,2013-03-07 22:54:00,
2013-03-07 18:00:00,36.0,27.1,30.34,NE,42,0.0,0.0,70,0.00,OVC,,0.02,WeatherDisplay:10.37,2013-03-07 23:00:00,
2013-03-07 18:05:00,36.0,26.8,30.34,NE,42,0.0,0.0,69,0.00,OVC,,0.02,WeatherDisplay:10.37,2013-03-07 23:05:00,
2013-03-07 18:10:00,35.8,26.6,30.34,NNE,19,0.0,0.0,69,0.00,OVC,,0.02,WeatherDisplay:10.37,2013-03-07 23:10:00,
2013-03-07 18:15:00,35.4,26.6,30.34,NNW,335,1.9,2.3,70,0.00,OVC,,0.02,WeatherDisplay:10.37,2013-03-07 23:15:00,
2013-03-07 18:20:00,35.4,26.3,30.34,NE,42,0.6,1.1,69,0.00,OVC,,0.02,WeatherDisplay:10.37,2013-03-07 23:20:00,
2013-03-07 18:25:00,35.4,26.6,30.34,NE,42,1.6,5.8,70,0.00,OVC,,0.02,WeatherDisplay:10.37,2013-03-07 23:25:00,
2013-03-07 18:30:00,35.4,26.6,30.34,NE,42,2.4,4.6,70,0.00,OVC,,0.02,WeatherDisplay:10.37,2013-03-07 23:30:00,
2013-03-07 18:35:00,35.2,26.4,30.34,NE,42,4.5,4.5,70,0.00,OVC,,0.02,WeatherDisplay:10.37,2013-03-07 23:35:00,
2013-03-07 18:40:00,35.2,26.4,30.34,North,357,1.3,1.3,70,0.00,OVC,,0.02,WeatherDisplay:10.37,2013-03-07 23:40:00,
2013-03-07 18:45:00,35.2,26.4,30.35,NE,42,0.0,0.0,70,0.00,OVC,,0.02,WeatherDisplay:10.37,2013-03-07 23:45:00,
2013-03-07 18:50:00,35.2,26.8,30.35,ENE,65,0.0,0.0,71,0.00,OVC,,0.02,WeatherDisplay:10.37,2013-03-07 23:50:00,
2013-03-07 18:55:00,35.2,26.8,30.35,North,357,0.0,0.0,71,0.00,OVC,,0.02,WeatherDisplay:10.37,2013-03-07 23:55:00,
2013-03-07 19:00:00,35.1,26.6,30.35,NE,42,0.0,0.0,71,0.00,OVC,,0.02,WeatherDisplay:10.37,2013-03-08 00:00:00,
2013-03-07 19:05:00,34.9,26.4,30.35,NNE,19,0.0,0.0,71,0.00,OVC,,0.02,WeatherDisplay:10.37,2013-03-08 00:05:00,
2013-03-07 19:10:00,34.9,26.4,30.36,NW,312,0.0,0.0,71,0.00,OVC,,0.02,WeatherDisplay:10.37,2013-03-08 00:10:00,
2013-03-07 19:15:00,34.9,26.4,30.35,ENE,65,0.0,0.0,71,0.00,OVC,,0.02,WeatherDisplay:10.37,2013-03-08 00:15:00,
2013-03-07 19:20:00,34.9,26.4,30.35,NE,42,0.2,1.1,71,0.00,OVC,,0.02,WeatherDisplay:10.37,2013-03-08 00:20:00,
2013-03-07 19:25:00,34.9,26.4,30.35,ENE,65,0.0,0.0,71,0.00,OVC,,0.02,WeatherDisplay:10.37,2013-03-08 00:25:00,
2013-03-07 19:30:00,34.7,26.3,30.35,SE,132,0.0,1.6,71,0.00,OVC,,0.02,WeatherDisplay:10.37,2013-03-08 00:30:00,
2013-03-07 19:35:00,34.7,26.6,30.35,North,357,0.0,2.3,72,0.00,OVC,,0.02,WeatherDisplay:10.37,2013-03-08 00:35:00,
2013-03-07 19:40:00,34.5,26.4,30.36,ENE,65,4.7,4.7,72,0.00,OVC,,0.02,WeatherDisplay:10.37,2013-03-08 00:40:00,
2013-03-07 19:45:00,34.5,26.1,30.36,NE,42,1.0,1.3,71,0.00,OVC,,0.02,WeatherDisplay:10.37,2013-03-08 00:45:00,
2013-03-07 19:50:00,34.3,26.2,30.36,NE,42,0.0,0.0,72,0.00,OVC,,0.02,WeatherDisplay:10.37,2013-03-08 00:50:00,
2013-03-07 19:55:00,34.5,26.1,30.36,NNE,19,0.0,0.0,71,0.00,OVC,,0.02,WeatherDisplay:10.37,2013-03-08 00:55:00,
2013-03-07 20:00:00,34.3,25.9,30.36,NNE,19,0.6,2.3,71,0.00,OVC,,0.02,WeatherDisplay:10.37,2013-03-08 01:00:00,
2013-03-07 20:05:00,34.3,26.2,30.36,East,87,0.0,0.0,72,0.00,OVC,,0.02,WeatherDisplay:10.37,2013-03-08 01:05:00,
2013-03-07 20:10:00,34.3,26.2,30.36,East,87,0.0,0.0,72,0.00,OVC,,0.02,WeatherDisplay:10.37,2013-03-08 01:10:00,
2013-03-07 20:15:00,34.3,26.2,30.36,NE,42,0.0,0.0,72,0.00,OVC,,0.02,WeatherDisplay:10.37,2013-03-08 01:15:00,
2013-03-07 20:20:00,34.3,26.2,30.36,NNW,335,0.0,1.1,72,0.00,OVC,,0.02,WeatherDisplay:10.37,2013-03-08 01:20:00,
2013-03-07 20:25:00,34.3,26.2,30.37,ENE,65,0.0,0.0,72,0.00,OVC,,0.02,WeatherDisplay:10.37,2013-03-08 01:25:00,
2013-03-07 20:30:00,34.3,26.2,30.37,North,357,0.5,1.8,72,0.00,OVC,,0.02,WeatherDisplay:10.37,2013-03-08 01:30:00,
2013-03-07 20:35:00,34.3,26.2,30.37,ENE,65,0.0,0.0,72,0.00,OVC,,0.02,WeatherDisplay:10.37,2013-03-08 01:35:00,
2013-03-07 20:40:00,34.3,26.2,30.36,ENE,65,0.0,0.0,72,0.00,OVC,,0.02,WeatherDisplay:10.37,2013-03-08 01:40:00,
2013-03-07 20:45:00,34.3,26.2,30.36,NE,42,0.0,0.0,72,0.00,OVC,,0.02,WeatherDisplay:10.37,2013-03-08 01:45:00,
2013-03-07 20:50:00,34.3,26.2,30.37,North,357,0.0,0.0,72,0.00,OVC,,0.02,WeatherDisplay:10.37,2013-03-08 01:50:00,
2013-03-07 20:55:00,34.3,26.2,30.37,North,357,0.0,0.0,72,0.00,OVC,,0.02,WeatherDisplay:10.37,2013-03-08 01:55:00,
2013-03-07 21:00:00,34.3,26.2,30.37,NE,42,1.5,1.5,72,0.00,OVC,,0.02,WeatherDisplay:10.37,2013-03-08 02:00:00,
2013-03-07 21:05:00,34.3,26.2,30.37,NE,42,0.0,0.0,72,0.00,OVC,,0.02,WeatherDisplay:10.37,2013-03-08 02:05:00,
2013-03-07 21:10:00,34.3,26.2,30.36,ENE,65,0.0,0.0,72,0.00,OVC,,0.02,WeatherDisplay:10.37,2013-03-08 02:10:00,
2013-03-07 21:15:00,34.3,26.2,30.37,NNE,19,0.5,1.1,72,0.00,OVC,,0.02,WeatherDisplay:10.37,2013-03-08 02:15:00,
2013-03-07 21:20:00,34.3,26.2,30.37,NNE,19,0.0,0.0,72,0.00,OVC,,0.02,WeatherDisplay:10.37,2013-03-08 02:20:00,
2013-03-07 21:25:00,34.3,26.2,30.36,NNE,19,0.0,0.0,72,0.00,OVC,,0.02,WeatherDisplay:10.37,2013-03-08 02:25:00,
2013-03-07 21:30:00,34.3,26.6,30.37,ENE,65,0.0,0.0,73,0.00,OVC,,0.02,WeatherDisplay:10.37,2013-03-08 02:30:00,
2013-03-07 21:35:00,34.3,26.6,30.37,ENE,65,0.0,0.0,73,0.00,OVC,,0.02,WeatherDisplay:10.37,2013-03-08 02:35:00,
2013-03-07 21:40:00,34.3,26.6,30.36,NNE,19,0.0,0.0,73,0.00,OVC,,0.02,WeatherDisplay:10.37,2013-03-08 02:40:00,
2013-03-07 21:45:00,34.3,26.6,30.36,NE,42,0.0,0.0,73,0.00,OVC,,0.02,WeatherDisplay:10.37,2013-03-08 02:45:00,
2013-03-07 21:50:00,34.2,26.4,30.36,ENE,65,0.0,0.0,73,0.00,OVC,,0.02,WeatherDisplay:10.37,2013-03-08 02:50:00,
2013-03-07 21:55:00,34.2,26.4,30.36,NE,42,0.0,0.0,73,0.00,OVC,,0.02,WeatherDisplay:10.37,2013-03-08 02:55:00,
2013-03-07 22:00:00,34.0,26.2,30.36,ESE,109,0.0,0.0,73,0.00,OVC,,0.02,WeatherDisplay:10.37,2013-03-08 03:00:00,
2013-03-07 22:05:00,34.0,26.2,30.36,ESE,109,2.5,2.5,73,0.00,OVC,,0.02,WeatherDisplay:10.37,2013-03-08 03:05:00,
2013-03-07 22:10:00,34.0,26.2,30.36,ENE,65,0.0,0.0,73,0.00,OVC,,0.02,WeatherDisplay:10.37,2013-03-08 03:10:00,
2013-03-07 22:15:00,34.0,26.2,30.36,ENE,65,1.1,1.1,73,0.00,OVC,,0.02,WeatherDisplay:10.37,2013-03-08 03:15:00,
2013-03-07 22:20:00,33.8,26.1,30.36,East,87,0.0,0.0,73,0.00,OVC,,0.02,WeatherDisplay:10.37,2013-03-08 03:20:00,
2013-03-07 22:25:00,33.8,26.1,30.36,ENE,65,0.0,0.0,73,0.00,OVC,,0.02,WeatherDisplay:10.37,2013-03-08 03:25:00,
2013-03-07 22:30:00,33.6,25.6,30.37,NNE,19,0.7,1.1,72,0.00,OVC,,0.02,WeatherDisplay:10.37,2013-03-08 03:30:00,
2013-03-07 22:35:00,33.6,25.6,30.37,ENE,65,0.0,0.0,72,0.00,OVC,,0.02,WeatherDisplay:10.37,2013-03-08 03:35:00,
2013-03-07 22:40:00,33.6,25.9,30.37,ENE,65,2.5,2.5,73,0.00,OVC,,0.02,WeatherDisplay:10.37,2013-03-08 03:40:00,
2013-03-07 22:45:00,33.6,25.6,30.37,NE,42,3.6,4.6,72,0.00,OVC,,0.02,WeatherDisplay:10.37,2013-03-08 03:45:00,
2013-03-07 22:50:00,33.6,25.6,30.36,NNE,19,0.0,2.3,72,0.00,OVC,,0.02,WeatherDisplay:10.37,2013-03-08 03:50:00,
2013-03-07 22:55:00,33.6,25.6,30.37,ENE,65,0.1,1.1,72,0.00,OVC,,0.02,WeatherDisplay:10.37,2013-03-08 03:55:00,
2013-03-07 23:00:00,33.6,25.6,30.37,East,87,0.0,0.0,72,0.00,OVC,,0.02,WeatherDisplay:10.37,2013-03-08 04:00:00,
2013-03-07 23:05:00,33.6,25.6,30.37,NNE,19,2.5,2.5,72,0.00,OVC,,0.02,WeatherDisplay:10.37,2013-03-08 04:05:00,
2013-03-07 23:10:00,33.6,25.6,30.36,ESE,109,0.0,0.0,72,0.00,OVC,,0.02,WeatherDisplay:10.37,2013-03-08 04:10:00,
2013-03-07 23:15:00,33.6,25.6,30.36,East,87,0.0,0.0,72,0.00,OVC,,0.02,WeatherDisplay:10.37,2013-03-08 04:15:00,
2013-03-07 23:20:00,33.6,25.6,30.35,NE,42,0.0,0.0,72,0.00,OVC,,0.02,WeatherDisplay:10.37,2013-03-08 04:20:00,
2013-03-07 23:25:00,33.6,25.9,30.37,SSE,155,0.4,0.0,73,0.00,OVC,,0.02,WeatherDisplay:10.37,2013-03-08 04:25:00,
2013-03-07 23:30:00,33.6,25.9,30.37,NE,42,1.1,3.5,73,0.00,OVC,,0.02,WeatherDisplay:10.37,2013-03-08 04:30:00,
2013-03-07 23:35:00,33.6,25.9,30.36,ENE,65,1.3,1.3,73,0.00,OVC,,0.02,WeatherDisplay:10.37,2013-03-08 04:35:00,
2013-03-07 23:40:00,33.4,25.7,30.36,East,87,2.2,2.5,73,0.00,OVC,,0.02,WeatherDisplay:10.37,2013-03-08 04:40:00,
2013-03-07 23:45:00,33.4,25.4,30.36,ESE,109,2.4,2.4,72,0.00,OVC,,0.02,WeatherDisplay:10.37,2013-03-08 04:45:00,
2013-03-07 23:50:00,33.4,25.4,30.35,East,87,3.1,3.5,72,0.00,OVC,,0.02,WeatherDisplay:10.37,2013-03-08 04:50:00,
2013-03-07 23:55:00,33.1,24.7,30.35,East,87,3.2,3.8,71,0.00,OVC,,0.02,WeatherDisplay:10.37,2013-03-08 04:55:00,